KCVN/CVN METAR and TAF weather

Enter ICAO airport designator
Station Type Date Time Source
KCVN METAR 2018/04/27 00:56 UTC NOAA

KCVN 270056Z AUTO 03022G28KT 10SM CLR 17/M03 A3013 RMK AO2 PK WND 03037/0010 SLP190 T01721028


Station Type Date Time Source
KCVN Decoded METAR 2018/04/27 00:56 UTC NOAA

Clovis, Clovis Municipal Airport, NM, United States (KCVN) 34-26N 103-05W
Apr 26, 2018 - 08:56 PM EDT / 2018.04.27 0056 UTC
Wind: from the NNE (030 degrees) at 25 MPH (22 KT) gusting to 32 MPH (28 KT):0
Visibility: 10 mile(s):0
Sky conditions: clear
Temperature: 63.0 F (17.2 C)
Dew Point: 27.0 F (-2.8 C)
Relative Humidity: 25%
Pressure (altimeter): 30.13 in. Hg (1020 hPa)
ob: KCVN 270056Z AUTO 03022G28KT 10SM CLR 17/M03 A3013 RMK AO2 PK WND 03037/0010 SLP190 T01721028
cycle: 1

Station Type Date Time Source
KCVN TAF UTC NOAA

Error!


Example: see airport list